Terminal Aerodrome Forecast
Issued by NWS Greer, SC

Home | Current Version | Previous Version | Text Only | Print | Product List | Glossary On
Versions: 1 2 3 4 5 6 7 8 9 10 11 12 13 14 15 16 17 18 19 20 21 22
464
FTUS42 KGSP 251321 AAA
TAFGSP
TAF AMD
KGSP 251321Z 2513/2612 22009KT P6SM VCSH FEW010 SCT025
     FM251530 24011G20KT P6SM SCT050 BKN140
     FM251700 24013G22KT P6SM SCT200
     FM252300 28013G22KT P6SM SKC
     FM260200 30009KT P6SM SKC
     FM260600 32005KT P6SM SKC=

USA.gov is the U.S. government's official web portal to all federal, state and local government web resources and services.